sensor_id;sensor_type;location;lat;lon;timestamp;P1;durP1;ratioP1;P2;durP2;ratioP2
611;SDS011;293;53.888;11.464;2024-03-22T00:01:55;17.30;;;12.60;;
611;SDS011;293;53.888;11.464;2024-03-22T00:04:21;16.63;;;13.17;;
611;SDS011;293;53.888;11.464;2024-03-22T00:06:50;15.40;;;12.60;;
611;SDS011;293;53.888;11.464;2024-03-22T00:09:16;14.50;;;11.80;;
611;SDS011;293;53.888;11.464;2024-03-22T00:11:43;17.83;;;11.17;;
611;SDS011;293;53.888;11.464;2024-03-22T00:14:10;22.17;;;11.87;;
611;SDS011;293;53.888;11.464;2024-03-22T00:16:37;17.80;;;12.50;;
611;SDS011;293;53.888;11.464;2024-03-22T00:19:03;14.20;;;11.60;;
611;SDS011;293;53.888;11.464;2024-03-22T00:21:30;17.40;;;11.10;;
611;SDS011;293;53.888;11.464;2024-03-22T00:23:58;19.87;;;12.40;;
611;SDS011;293;53.888;11.464;2024-03-22T00:26:26;18.60;;;11.63;;
611;SDS011;293;53.888;11.464;2024-03-22T00:28:52;19.30;;;12.30;;
611;SDS011;293;53.888;11.464;2024-03-22T00:31:19;17.30;;;12.40;;
611;SDS011;293;53.888;11.464;2024-03-22T00:33:45;19.20;;;9.77;;
611;SDS011;293;53.888;11.464;2024-03-22T00:36:11;18.70;;;12.60;;
611;SDS011;293;53.888;11.464;2024-03-22T00:38:37;16.77;;;11.77;;
611;SDS011;293;53.888;11.464;2024-03-22T00:41:06;14.83;;;10.87;;
611;SDS011;293;53.888;11.464;2024-03-22T00:43:32;18.17;;;11.67;;
611;SDS011;293;53.888;11.464;2024-03-22T00:45:58;14.00;;;10.67;;
611;SDS011;293;53.888;11.464;2024-03-22T00:48:25;14.30;;;10.57;;
611;SDS011;293;53.888;11.464;2024-03-22T00:50:52;15.70;;;11.30;;
611;SDS011;293;53.888;11.464;2024-03-22T00:53:18;12.60;;;9.20;;
611;SDS011;293;53.888;11.464;2024-03-22T00:55:45;21.90;;;11.27;;
611;SDS011;293;53.888;11.464;2024-03-22T00:58:17;22.80;;;13.77;;
611;SDS011;293;53.888;11.464;2024-03-22T01:00:44;15.87;;;10.73;;
611;SDS011;293;53.888;11.464;2024-03-22T01:03:10;23.00;;;10.77;;
611;SDS011;293;53.888;11.464;2024-03-22T01:05:37;13.30;;;10.53;;
611;SDS011;293;53.888;11.464;2024-03-22T01:08:05;21.27;;;11.80;;
611;SDS011;293;53.888;11.464;2024-03-22T01:10:33;16.30;;;10.13;;
611;SDS011;293;53.888;11.464;2024-03-22T01:12:59;15.10;;;11.37;;
611;SDS011;293;53.888;11.464;2024-03-22T01:15:27;16.20;;;10.83;;
611;SDS011;293;53.888;11.464;2024-03-22T01:17:53;14.63;;;11.30;;
611;SDS011;293;53.888;11.464;2024-03-22T01:20:20;14.40;;;10.87;;
611;SDS011;293;53.888;11.464;2024-03-22T01:22:46;12.80;;;9.67;;
611;SDS011;293;53.888;11.464;2024-03-22T01:25:14;16.07;;;11.33;;
611;SDS011;293;53.888;11.464;2024-03-22T01:27:40;16.83;;;10.93;;
611;SDS011;293;53.888;11.464;2024-03-22T01:30:07;13.73;;;9.87;;
611;SDS011;293;53.888;11.464;2024-03-22T01:32:35;21.40;;;13.00;;
611;SDS011;293;53.888;11.464;2024-03-22T01:35:02;17.30;;;12.03;;
611;SDS011;293;53.888;11.464;2024-03-22T01:37:29;17.47;;;10.97;;
611;SDS011;293;53.888;11.464;2024-03-22T01:39:56;13.10;;;10.20;;
611;SDS011;293;53.888;11.464;2024-03-22T01:42:21;18.67;;;11.77;;
611;SDS011;293;53.888;11.464;2024-03-22T01:44:48;18.20;;;10.87;;
611;SDS011;293;53.888;11.464;2024-03-22T01:47:14;15.87;;;10.50;;
611;SDS011;293;53.888;11.464;2024-03-22T01:49:43;16.70;;;11.07;;
611;SDS011;293;53.888;11.464;2024-03-22T01:52:09;16.27;;;12.33;;
611;SDS011;293;53.888;11.464;2024-03-22T01:54:36;19.50;;;12.50;;
611;SDS011;293;53.888;11.464;2024-03-22T01:57:02;19.20;;;12.23;;
611;SDS011;293;53.888;11.464;2024-03-22T01:59:29;18.13;;;12.80;;
611;SDS011;293;53.888;11.464;2024-03-22T02:01:55;15.53;;;11.10;;
611;SDS011;293;53.888;11.464;2024-03-22T02:04:22;14.30;;;11.17;;
611;SDS011;293;53.888;11.464;2024-03-22T02:06:50;14.67;;;12.13;;
611;SDS011;293;53.888;11.464;2024-03-22T02:09:17;18.43;;;12.40;;
611;SDS011;293;53.888;11.464;2024-03-22T02:11:46;19.03;;;12.07;;
611;SDS011;293;53.888;11.464;2024-03-22T02:14:13;18.00;;;12.50;;
611;SDS011;293;53.888;11.464;2024-03-22T02:16:39;18.50;;;11.57;;
611;SDS011;293;53.888;11.464;2024-03-22T02:19:06;14.33;;;12.37;;
611;SDS011;293;53.888;11.464;2024-03-22T02:21:32;14.53;;;10.53;;
611;SDS011;293;53.888;11.464;2024-03-22T02:24:00;15.00;;;11.90;;
611;SDS011;293;53.888;11.464;2024-03-22T02:26:26;14.83;;;11.90;;
611;SDS011;293;53.888;11.464;2024-03-22T02:28:53;15.77;;;12.40;;
611;SDS011;293;53.888;11.464;2024-03-22T02:31:19;13.50;;;11.90;;
611;SDS011;293;53.888;11.464;2024-03-22T02:33:46;18.20;;;12.63;;
611;SDS011;293;53.888;11.464;2024-03-22T02:36:12;19.17;;;13.03;;
611;SDS011;293;53.888;11.464;2024-03-22T02:38:39;14.43;;;12.10;;
611;SDS011;293;53.888;11.464;2024-03-22T02:41:06;17.57;;;11.63;;
611;SDS011;293;53.888;11.464;2024-03-22T02:43:33;15.73;;;11.73;;
611;SDS011;293;53.888;11.464;2024-03-22T02:45:59;17.30;;;12.30;;
611;SDS011;293;53.888;11.464;2024-03-22T02:48:25;17.67;;;12.63;;
611;SDS011;293;53.888;11.464;2024-03-22T02:50:54;18.13;;;11.90;;
611;SDS011;293;53.888;11.464;2024-03-22T02:53:22;14.70;;;12.90;;
611;SDS011;293;53.888;11.464;2024-03-22T02:55:47;18.33;;;13.27;;
611;SDS011;293;53.888;11.464;2024-03-22T02:58:16;16.10;;;11.73;;
611;SDS011;293;53.888;11.464;2024-03-22T03:00:42;18.73;;;13.00;;
611;SDS011;293;53.888;11.464;2024-03-22T03:03:09;16.10;;;12.07;;
611;SDS011;293;53.888;11.464;2024-03-22T03:05:35;13.47;;;11.93;;
611;SDS011;293;53.888;11.464;2024-03-22T03:08:02;15.97;;;12.43;;
611;SDS011;293;53.888;11.464;2024-03-22T03:10:28;14.80;;;12.37;;
611;SDS011;293;53.888;11.464;2024-03-22T03:12:55;15.00;;;12.80;;
611;SDS011;293;53.888;11.464;2024-03-22T03:15:23;16.87;;;13.70;;
611;SDS011;293;53.888;11.464;2024-03-22T03:17:49;16.60;;;14.13;;
611;SDS011;293;53.888;11.464;2024-03-22T03:20:17;16.97;;;13.23;;
611;SDS011;293;53.888;11.464;2024-03-22T03:22:43;21.27;;;15.47;;
611;SDS011;293;53.888;11.464;2024-03-22T03:25:09;19.03;;;15.50;;
611;SDS011;293;53.888;11.464;2024-03-22T03:27:36;13.50;;;12.10;;
611;SDS011;293;53.888;11.464;2024-03-22T03:30:02;15.10;;;12.40;;
611;SDS011;293;53.888;11.464;2024-03-22T03:32:31;22.50;;;14.00;;
611;SDS011;293;53.888;11.464;2024-03-22T03:34:57;18.97;;;15.07;;
611;SDS011;293;53.888;11.464;2024-03-22T03:37:24;17.17;;;14.63;;
611;SDS011;293;53.888;11.464;2024-03-22T03:39:50;19.80;;;15.97;;
611;SDS011;293;53.888;11.464;2024-03-22T03:42:17;21.23;;;14.60;;
611;SDS011;293;53.888;11.464;2024-03-22T03:44:43;18.27;;;13.80;;
611;SDS011;293;53.888;11.464;2024-03-22T03:47:09;19.33;;;14.50;;
611;SDS011;293;53.888;11.464;2024-03-22T03:49:37;21.63;;;15.27;;
611;SDS011;293;53.888;11.464;2024-03-22T03:52:04;17.23;;;14.00;;
611;SDS011;293;53.888;11.464;2024-03-22T03:54:30;18.00;;;14.50;;
611;SDS011;293;53.888;11.464;2024-03-22T03:56:57;20.70;;;15.00;;
611;SDS011;293;53.888;11.464;2024-03-22T03:59:23;18.60;;;14.17;;
611;SDS011;293;53.888;11.464;2024-03-22T04:01:49;16.97;;;13.90;;
611;SDS011;293;53.888;11.464;2024-03-22T04:04:15;18.90;;;14.87;;
611;SDS011;293;53.888;11.464;2024-03-22T04:06:44;20.33;;;15.67;;
611;SDS011;293;53.888;11.464;2024-03-22T04:09:10;17.37;;;13.80;;
611;SDS011;293;53.888;11.464;2024-03-22T04:11:37;19.10;;;14.83;;
611;SDS011;293;53.888;11.464;2024-03-22T04:14:03;18.30;;;14.50;;
611;SDS011;293;53.888;11.464;2024-03-22T04:16:31;17.10;;;14.13;;
611;SDS011;293;53.888;11.464;2024-03-22T04:18:57;24.27;;;17.23;;
611;SDS011;293;53.888;11.464;2024-03-22T04:21:24;22.30;;;15.80;;
611;SDS011;293;53.888;11.464;2024-03-22T04:23:52;19.93;;;15.17;;
611;SDS011;293;53.888;11.464;2024-03-22T04:26:18;20.30;;;15.03;;
611;SDS011;293;53.888;11.464;2024-03-22T04:28:45;18.90;;;15.60;;
611;SDS011;293;53.888;11.464;2024-03-22T04:31:12;23.00;;;16.17;;
611;SDS011;293;53.888;11.464;2024-03-22T04:33:39;21.50;;;16.67;;
611;SDS011;293;53.888;11.464;2024-03-22T04:36:06;23.00;;;15.57;;
611;SDS011;293;53.888;11.464;2024-03-22T04:38:34;22.20;;;18.40;;
611;SDS011;293;53.888;11.464;2024-03-22T04:41:03;21.57;;;17.07;;
611;SDS011;293;53.888;11.464;2024-03-22T04:43:30;24.03;;;18.53;;
611;SDS011;293;53.888;11.464;2024-03-22T04:45:56;19.20;;;16.30;;
611;SDS011;293;53.888;11.464;2024-03-22T04:48:23;25.60;;;18.40;;
611;SDS011;293;53.888;11.464;2024-03-22T04:50:50;25.47;;;18.80;;
611;SDS011;293;53.888;11.464;2024-03-22T04:53:17;23.50;;;17.37;;
611;SDS011;293;53.888;11.464;2024-03-22T04:55:46;24.60;;;19.37;;
611;SDS011;293;53.888;11.464;2024-03-22T04:58:14;25.77;;;19.77;;
611;SDS011;293;53.888;11.464;2024-03-22T05:00:42;27.83;;;20.00;;
611;SDS011;293;53.888;11.464;2024-03-22T05:03:08;25.00;;;19.50;;
611;SDS011;293;53.888;11.464;2024-03-22T05:05:35;24.77;;;19.40;;
611;SDS011;293;53.888;11.464;2024-03-22T05:08:01;25.90;;;21.30;;
611;SDS011;293;53.888;11.464;2024-03-22T05:10:29;25.87;;;20.80;;
611;SDS011;293;53.888;11.464;2024-03-22T05:12:55;26.47;;;21.53;;
611;SDS011;293;53.888;11.464;2024-03-22T05:15:23;29.27;;;22.83;;
611;SDS011;293;53.888;11.464;2024-03-22T05:17:50;30.10;;;21.70;;
611;SDS011;293;53.888;11.464;2024-03-22T05:20:17;27.83;;;22.10;;
611;SDS011;293;53.888;11.464;2024-03-22T05:22:43;25.00;;;20.03;;
611;SDS011;293;53.888;11.464;2024-03-22T05:25:10;28.17;;;20.90;;
611;SDS011;293;53.888;11.464;2024-03-22T05:27:37;30.73;;;22.73;;
611;SDS011;293;53.888;11.464;2024-03-22T05:30:05;31.47;;;22.20;;
611;SDS011;293;53.888;11.464;2024-03-22T05:32:33;25.47;;;20.70;;
611;SDS011;293;53.888;11.464;2024-03-22T05:35:00;28.23;;;21.10;;
611;SDS011;293;53.888;11.464;2024-03-22T05:37:26;29.90;;;21.40;;
611;SDS011;293;53.888;11.464;2024-03-22T05:39:53;28.70;;;22.33;;
611;SDS011;293;53.888;11.464;2024-03-22T05:42:19;29.10;;;22.80;;
611;SDS011;293;53.888;11.464;2024-03-22T05:44:47;34.97;;;26.00;;
611;SDS011;293;53.888;11.464;2024-03-22T05:47:13;31.23;;;22.73;;
611;SDS011;293;53.888;11.464;2024-03-22T05:49:41;32.27;;;24.87;;
611;SDS011;293;53.888;11.464;2024-03-22T05:52:07;28.33;;;25.23;;
611;SDS011;293;53.888;11.464;2024-03-22T05:54:34;32.50;;;25.50;;
611;SDS011;293;53.888;11.464;2024-03-22T05:57:00;30.93;;;22.47;;
611;SDS011;293;53.888;11.464;2024-03-22T05:59:30;27.40;;;23.07;;
611;SDS011;293;53.888;11.464;2024-03-22T06:01:55;31.83;;;23.40;;
611;SDS011;293;53.888;11.464;2024-03-22T06:04:22;31.07;;;25.77;;
611;SDS011;293;53.888;11.464;2024-03-22T06:06:50;31.10;;;23.43;;
611;SDS011;293;53.888;11.464;2024-03-22T06:09:16;32.57;;;24.57;;
611;SDS011;293;53.888;11.464;2024-03-22T06:11:49;29.43;;;24.10;;
611;SDS011;293;53.888;11.464;2024-03-22T06:14:17;33.43;;;25.60;;
611;SDS011;293;53.888;11.464;2024-03-22T06:16:43;29.23;;;23.30;;
611;SDS011;293;53.888;11.464;2024-03-22T06:19:09;27.87;;;23.70;;
611;SDS011;293;53.888;11.464;2024-03-22T06:21:35;33.20;;;24.17;;
611;SDS011;293;53.888;11.464;2024-03-22T06:24:04;31.47;;;24.90;;
611;SDS011;293;53.888;11.464;2024-03-22T06:26:30;31.50;;;24.70;;
611;SDS011;293;53.888;11.464;2024-03-22T06:28:57;30.07;;;24.57;;
611;SDS011;293;53.888;11.464;2024-03-22T06:31:23;33.47;;;24.97;;
611;SDS011;293;53.888;11.464;2024-03-22T06:33:50;31.00;;;25.70;;
611;SDS011;293;53.888;11.464;2024-03-22T06:36:16;34.33;;;28.07;;
611;SDS011;293;53.888;11.464;2024-03-22T06:38:43;33.87;;;25.30;;
611;SDS011;293;53.888;11.464;2024-03-22T06:41:10;32.20;;;27.33;;
611;SDS011;293;53.888;11.464;2024-03-22T06:43:37;40.30;;;30.23;;
611;SDS011;293;53.888;11.464;2024-03-22T06:46:03;36.17;;;28.40;;
611;SDS011;293;53.888;11.464;2024-03-22T06:48:30;35.57;;;28.40;;
611;SDS011;293;53.888;11.464;2024-03-22T06:50:56;38.50;;;27.77;;
611;SDS011;293;53.888;11.464;2024-03-22T06:53:23;35.97;;;29.07;;
611;SDS011;293;53.888;11.464;2024-03-22T06:55:48;35.30;;;27.47;;
611;SDS011;293;53.888;11.464;2024-03-22T06:58:17;35.47;;;28.23;;
611;SDS011;293;53.888;11.464;2024-03-22T07:00:43;40.73;;;25.00;;
611;SDS011;293;53.888;11.464;2024-03-22T07:03:09;35.13;;;27.37;;
611;SDS011;293;53.888;11.464;2024-03-22T07:05:35;30.07;;;25.37;;
611;SDS011;293;53.888;11.464;2024-03-22T07:08:02;37.40;;;28.67;;
611;SDS011;293;53.888;11.464;2024-03-22T07:10:29;37.23;;;30.30;;
611;SDS011;293;53.888;11.464;2024-03-22T07:12:56;33.03;;;27.50;;
611;SDS011;293;53.888;11.464;2024-03-22T07:15:24;40.13;;;27.70;;
611;SDS011;293;53.888;11.464;2024-03-22T07:17:51;37.77;;;29.47;;
611;SDS011;293;53.888;11.464;2024-03-22T07:20:17;36.30;;;26.30;;
611;SDS011;293;53.888;11.464;2024-03-22T07:22:44;39.60;;;29.70;;
611;SDS011;293;53.888;11.464;2024-03-22T07:25:11;37.57;;;30.83;;
611;SDS011;293;53.888;11.464;2024-03-22T07:27:38;33.33;;;27.20;;
611;SDS011;293;53.888;11.464;2024-03-22T07:30:04;39.03;;;30.47;;
611;SDS011;293;53.888;11.464;2024-03-22T07:32:33;38.23;;;28.83;;
611;SDS011;293;53.888;11.464;2024-03-22T07:34:59;37.40;;;29.90;;
611;SDS011;293;53.888;11.464;2024-03-22T07:37:26;38.53;;;29.47;;
611;SDS011;293;53.888;11.464;2024-03-22T07:39:52;40.07;;;31.37;;
611;SDS011;293;53.888;11.464;2024-03-22T07:42:19;38.23;;;30.33;;
611;SDS011;293;53.888;11.464;2024-03-22T07:44:45;34.50;;;30.07;;
611;SDS011;293;53.888;11.464;2024-03-22T07:47:12;48.73;;;38.97;;
611;SDS011;293;53.888;11.464;2024-03-22T07:49:39;40.30;;;32.33;;
611;SDS011;293;53.888;11.464;2024-03-22T07:52:06;37.63;;;30.63;;
611;SDS011;293;53.888;11.464;2024-03-22T07:54:32;37.97;;;31.50;;
611;SDS011;293;53.888;11.464;2024-03-22T07:56:59;36.60;;;30.27;;
611;SDS011;293;53.888;11.464;2024-03-22T07:59:25;47.07;;;33.67;;
611;SDS011;293;53.888;11.464;2024-03-22T08:01:52;39.03;;;32.33;;
611;SDS011;293;53.888;11.464;2024-03-22T08:04:18;40.50;;;31.33;;
611;SDS011;293;53.888;11.464;2024-03-22T08:06:46;45.60;;;35.47;;
611;SDS011;293;53.888;11.464;2024-03-22T08:09:12;42.37;;;31.03;;
611;SDS011;293;53.888;11.464;2024-03-22T08:11:39;43.37;;;31.50;;
611;SDS011;293;53.888;11.464;2024-03-22T08:14:05;41.07;;;32.83;;
611;SDS011;293;53.888;11.464;2024-03-22T08:16:32;43.10;;;33.67;;
611;SDS011;293;53.888;11.464;2024-03-22T08:18:58;38.20;;;32.40;;
611;SDS011;293;53.888;11.464;2024-03-22T08:21:25;43.00;;;33.37;;
611;SDS011;293;53.888;11.464;2024-03-22T08:23:52;47.67;;;36.63;;
611;SDS011;293;53.888;11.464;2024-03-22T08:26:19;44.27;;;35.07;;
611;SDS011;293;53.888;11.464;2024-03-22T08:28:45;45.13;;;36.90;;
611;SDS011;293;53.888;11.464;2024-03-22T08:31:13;43.73;;;34.60;;
611;SDS011;293;53.888;11.464;2024-03-22T08:33:39;44.57;;;34.17;;
611;SDS011;293;53.888;11.464;2024-03-22T08:36:06;45.03;;;31.87;;
611;SDS011;293;53.888;11.464;2024-03-22T08:38:32;44.37;;;36.20;;
611;SDS011;293;53.888;11.464;2024-03-22T08:41:00;43.20;;;34.70;;
611;SDS011;293;53.888;11.464;2024-03-22T08:43:26;42.40;;;33.30;;
611;SDS011;293;53.888;11.464;2024-03-22T08:45:54;50.10;;;36.13;;
611;SDS011;293;53.888;11.464;2024-03-22T08:48:20;47.50;;;35.50;;
611;SDS011;293;53.888;11.464;2024-03-22T08:50:47;43.00;;;33.47;;
611;SDS011;293;53.888;11.464;2024-03-22T08:53:13;45.20;;;34.10;;
611;SDS011;293;53.888;11.464;2024-03-22T08:55:44;49.90;;;37.10;;
611;SDS011;293;53.888;11.464;2024-03-22T08:58:12;44.40;;;34.50;;
611;SDS011;293;53.888;11.464;2024-03-22T09:00:40;48.37;;;37.17;;
611;SDS011;293;53.888;11.464;2024-03-22T09:03:06;52.47;;;41.17;;
611;SDS011;293;53.888;11.464;2024-03-22T09:05:33;47.20;;;37.23;;
611;SDS011;293;53.888;11.464;2024-03-22T09:07:59;49.90;;;38.03;;
611;SDS011;293;53.888;11.464;2024-03-22T09:10:26;45.80;;;35.17;;
611;SDS011;293;53.888;11.464;2024-03-22T09:12:52;40.17;;;33.40;;
611;SDS011;293;53.888;11.464;2024-03-22T09:15:20;48.47;;;36.17;;
611;SDS011;293;53.888;11.464;2024-03-22T09:17:46;48.27;;;35.17;;
611;SDS011;293;53.888;11.464;2024-03-22T09:20:13;43.47;;;35.07;;
611;SDS011;293;53.888;11.464;2024-03-22T09:22:39;50.83;;;37.00;;
611;SDS011;293;53.888;11.464;2024-03-22T09:25:06;43.67;;;34.80;;
611;SDS011;293;53.888;11.464;2024-03-22T09:27:33;48.37;;;35.93;;
611;SDS011;293;53.888;11.464;2024-03-22T09:29:59;49.60;;;37.17;;
611;SDS011;293;53.888;11.464;2024-03-22T09:32:27;45.00;;;35.00;;
611;SDS011;293;53.888;11.464;2024-03-22T09:34:54;49.57;;;38.03;;
611;SDS011;293;53.888;11.464;2024-03-22T09:37:20;48.70;;;37.23;;
611;SDS011;293;53.888;11.464;2024-03-22T09:39:47;45.17;;;36.60;;
611;SDS011;293;53.888;11.464;2024-03-22T09:42:15;45.17;;;34.37;;
611;SDS011;293;53.888;11.464;2024-03-22T09:44:44;52.40;;;37.17;;
611;SDS011;293;53.888;11.464;2024-03-22T09:47:13;45.23;;;36.50;;
611;SDS011;293;53.888;11.464;2024-03-22T09:49:42;46.73;;;36.50;;
611;SDS011;293;53.888;11.464;2024-03-22T09:52:11;49.07;;;36.83;;
611;SDS011;293;53.888;11.464;2024-03-22T09:54:41;46.27;;;35.90;;
611;SDS011;293;53.888;11.464;2024-03-22T09:57:07;43.87;;;33.80;;
611;SDS011;293;53.888;11.464;2024-03-22T09:59:38;45.40;;;36.17;;
611;SDS011;293;53.888;11.464;2024-03-22T10:02:05;53.17;;;37.57;;
611;SDS011;293;53.888;11.464;2024-03-22T10:04:36;47.13;;;37.20;;
611;SDS011;293;53.888;11.464;2024-03-22T10:07:03;50.90;;;39.20;;
611;SDS011;293;53.888;11.464;2024-03-22T10:09:31;48.77;;;37.10;;
611;SDS011;293;53.888;11.464;2024-03-22T10:11:57;61.17;;;44.13;;
611;SDS011;293;53.888;11.464;2024-03-22T10:14:24;47.73;;;36.43;;
611;SDS011;293;53.888;11.464;2024-03-22T10:16:51;45.43;;;37.17;;
611;SDS011;293;53.888;11.464;2024-03-22T10:19:19;47.87;;;37.07;;
611;SDS011;293;53.888;11.464;2024-03-22T10:21:45;44.70;;;35.50;;
611;SDS011;293;53.888;11.464;2024-03-22T10:24:14;51.47;;;35.87;;
611;SDS011;293;53.888;11.464;2024-03-22T10:26:40;45.97;;;36.60;;
611;SDS011;293;53.888;11.464;2024-03-22T10:29:07;47.63;;;35.00;;
611;SDS011;293;53.888;11.464;2024-03-22T10:31:34;45.70;;;34.93;;
611;SDS011;293;53.888;11.464;2024-03-22T10:34:02;46.10;;;34.57;;
611;SDS011;293;53.888;11.464;2024-03-22T10:36:29;48.90;;;37.63;;
611;SDS011;293;53.888;11.464;2024-03-22T10:38:57;49.50;;;36.10;;
611;SDS011;293;53.888;11.464;2024-03-22T10:41:25;50.20;;;37.10;;
611;SDS011;293;53.888;11.464;2024-03-22T10:43:52;48.60;;;36.40;;
611;SDS011;293;53.888;11.464;2024-03-22T10:46:19;47.47;;;37.20;;
611;SDS011;293;53.888;11.464;2024-03-22T10:48:46;44.70;;;35.27;;
611;SDS011;293;53.888;11.464;2024-03-22T10:51:14;49.50;;;35.97;;
611;SDS011;293;53.888;11.464;2024-03-22T10:53:41;46.47;;;35.47;;
611;SDS011;293;53.888;11.464;2024-03-22T10:56:08;44.67;;;34.83;;
611;SDS011;293;53.888;11.464;2024-03-22T10:58:40;45.30;;;33.67;;
611;SDS011;293;53.888;11.464;2024-03-22T11:01:10;45.77;;;35.10;;
611;SDS011;293;53.888;11.464;2024-03-22T11:03:48;45.87;;;35.57;;
611;SDS011;293;53.888;11.464;2024-03-22T11:06:17;43.87;;;34.20;;
611;SDS011;293;53.888;11.464;2024-03-22T11:08:49;48.73;;;37.17;;
611;SDS011;293;53.888;11.464;2024-03-22T11:11:17;45.80;;;33.30;;
611;SDS011;293;53.888;11.464;2024-03-22T11:13:47;43.53;;;33.90;;
611;SDS011;293;53.888;11.464;2024-03-22T11:16:14;44.07;;;33.80;;
611;SDS011;293;53.888;11.464;2024-03-22T11:18:42;46.67;;;35.50;;
611;SDS011;293;53.888;11.464;2024-03-22T11:21:07;47.93;;;34.83;;
611;SDS011;293;53.888;11.464;2024-03-22T11:23:35;50.17;;;35.43;;
611;SDS011;293;53.888;11.464;2024-03-22T11:26:01;47.33;;;33.57;;
611;SDS011;293;53.888;11.464;2024-03-22T11:28:28;49.50;;;33.47;;
611;SDS011;293;53.888;11.464;2024-03-22T11:30:56;44.67;;;33.40;;
611;SDS011;293;53.888;11.464;2024-03-22T11:33:23;41.33;;;32.00;;
611;SDS011;293;53.888;11.464;2024-03-22T11:35:49;36.70;;;28.93;;
611;SDS011;293;53.888;11.464;2024-03-22T11:38:16;36.50;;;29.70;;
611;SDS011;293;53.888;11.464;2024-03-22T11:40:42;35.03;;;29.67;;
611;SDS011;293;53.888;11.464;2024-03-22T11:43:10;32.47;;;26.77;;
611;SDS011;293;53.888;11.464;2024-03-22T11:45:38;35.07;;;26.73;;
611;SDS011;293;53.888;11.464;2024-03-22T11:48:07;26.57;;;23.70;;
611;SDS011;293;53.888;11.464;2024-03-22T11:50:35;31.73;;;23.97;;
611;SDS011;293;53.888;11.464;2024-03-22T11:53:04;28.87;;;23.07;;
611;SDS011;293;53.888;11.464;2024-03-22T11:55:30;25.90;;;19.80;;
611;SDS011;293;53.888;11.464;2024-03-22T11:57:57;25.27;;;19.53;;
611;SDS011;293;53.888;11.464;2024-03-22T12:00:24;23.13;;;20.13;;
611;SDS011;293;53.888;11.464;2024-03-22T12:02:52;27.60;;;18.73;;
611;SDS011;293;53.888;11.464;2024-03-22T12:05:20;22.03;;;16.63;;
611;SDS011;293;53.888;11.464;2024-03-22T12:07:47;20.70;;;17.73;;
611;SDS011;293;53.888;11.464;2024-03-22T12:10:13;23.03;;;17.97;;
611;SDS011;293;53.888;11.464;2024-03-22T12:12:40;21.37;;;16.77;;
611;SDS011;293;53.888;11.464;2024-03-22T12:15:06;22.40;;;16.33;;
611;SDS011;293;53.888;11.464;2024-03-22T12:17:33;17.90;;;15.57;;
611;SDS011;293;53.888;11.464;2024-03-22T12:20:01;20.30;;;15.07;;
611;SDS011;293;53.888;11.464;2024-03-22T12:22:30;16.17;;;14.50;;
611;SDS011;293;53.888;11.464;2024-03-22T12:24:56;18.00;;;15.50;;
611;SDS011;293;53.888;11.464;2024-03-22T12:27:24;15.03;;;13.20;;
611;SDS011;293;53.888;11.464;2024-03-22T12:29:50;17.93;;;14.47;;
611;SDS011;293;53.888;11.464;2024-03-22T12:32:17;15.53;;;13.70;;
611;SDS011;293;53.888;11.464;2024-03-22T12:34:43;18.37;;;13.87;;
611;SDS011;293;53.888;11.464;2024-03-22T12:37:10;14.83;;;12.63;;
611;SDS011;293;53.888;11.464;2024-03-22T12:39:37;14.03;;;11.47;;
611;SDS011;293;53.888;11.464;2024-03-22T12:42:04;15.57;;;12.10;;
611;SDS011;293;53.888;11.464;2024-03-22T12:44:31;14.43;;;11.73;;
611;SDS011;293;53.888;11.464;2024-03-22T12:46:57;13.50;;;12.10;;
611;SDS011;293;53.888;11.464;2024-03-22T12:49:24;12.53;;;10.53;;
611;SDS011;293;53.888;11.464;2024-03-22T12:51:51;13.70;;;11.63;;
611;SDS011;293;53.888;11.464;2024-03-22T12:54:16;16.10;;;13.27;;
611;SDS011;293;53.888;11.464;2024-03-22T12:56:46;13.23;;;11.40;;
611;SDS011;293;53.888;11.464;2024-03-22T12:59:13;11.63;;;10.43;;
611;SDS011;293;53.888;11.464;2024-03-22T13:01:40;11.20;;;10.00;;
611;SDS011;293;53.888;11.464;2024-03-22T13:04:07;12.90;;;10.30;;
611;SDS011;293;53.888;11.464;2024-03-22T13:06:33;11.30;;;9.90;;
611;SDS011;293;53.888;11.464;2024-03-22T13:09:00;11.70;;;10.60;;
611;SDS011;293;53.888;11.464;2024-03-22T13:11:29;10.90;;;9.77;;
611;SDS011;293;53.888;11.464;2024-03-22T13:13:58;14.60;;;11.00;;
611;SDS011;293;53.888;11.464;2024-03-22T13:16:24;14.17;;;12.67;;
611;SDS011;293;53.888;11.464;2024-03-22T13:18:51;13.03;;;10.50;;
611;SDS011;293;53.888;11.464;2024-03-22T13:21:17;14.97;;;12.70;;
611;SDS011;293;53.888;11.464;2024-03-22T13:23:44;15.27;;;11.87;;
611;SDS011;293;53.888;11.464;2024-03-22T13:26:10;11.90;;;10.80;;
611;SDS011;293;53.888;11.464;2024-03-22T13:28:37;13.97;;;12.27;;
611;SDS011;293;53.888;11.464;2024-03-22T13:31:04;15.17;;;12.70;;
611;SDS011;293;53.888;11.464;2024-03-22T13:33:32;14.70;;;12.23;;
611;SDS011;293;53.888;11.464;2024-03-22T13:35:59;13.07;;;11.60;;
611;SDS011;293;53.888;11.464;2024-03-22T13:38:26;11.73;;;10.33;;
611;SDS011;293;53.888;11.464;2024-03-22T13:40:55;11.90;;;9.73;;
611;SDS011;293;53.888;11.464;2024-03-22T13:43:22;12.20;;;8.90;;
611;SDS011;293;53.888;11.464;2024-03-22T13:45:49;9.53;;;7.73;;
611;SDS011;293;53.888;11.464;2024-03-22T13:48:20;7.73;;;7.00;;
611;SDS011;293;53.888;11.464;2024-03-22T13:50:50;9.03;;;7.30;;
611;SDS011;293;53.888;11.464;2024-03-22T13:53:18;5.97;;;5.50;;
611;SDS011;293;53.888;11.464;2024-03-22T13:55:44;11.37;;;10.23;;
611;SDS011;293;53.888;11.464;2024-03-22T13:58:11;24.50;;;20.40;;
611;SDS011;293;53.888;11.464;2024-03-22T14:00:37;5.40;;;4.93;;
611;SDS011;293;53.888;11.464;2024-03-22T14:03:04;5.90;;;4.53;;
611;SDS011;293;53.888;11.464;2024-03-22T14:05:32;5.33;;;4.80;;
611;SDS011;293;53.888;11.464;2024-03-22T14:07:59;3.87;;;3.57;;
611;SDS011;293;53.888;11.464;2024-03-22T14:10:25;4.03;;;3.63;;
611;SDS011;293;53.888;11.464;2024-03-22T14:12:54;4.43;;;4.03;;
611;SDS011;293;53.888;11.464;2024-03-22T14:15:20;4.23;;;2.90;;
611;SDS011;293;53.888;11.464;2024-03-22T14:17:49;3.83;;;3.33;;
611;SDS011;293;53.888;11.464;2024-03-22T14:20:16;3.17;;;2.80;;
611;SDS011;293;53.888;11.464;2024-03-22T14:22:45;2.97;;;2.60;;
611;SDS011;293;53.888;11.464;2024-03-22T14:25:12;2.57;;;2.30;;
611;SDS011;293;53.888;11.464;2024-03-22T14:27:39;2.67;;;2.47;;
611;SDS011;293;53.888;11.464;2024-03-22T14:30:07;2.80;;;2.60;;
611;SDS011;293;53.888;11.464;2024-03-22T14:32:36;2.87;;;2.07;;
611;SDS011;293;53.888;11.464;2024-03-22T14:35:02;2.00;;;1.83;;
611;SDS011;293;53.888;11.464;2024-03-22T14:37:33;14.27;;;12.97;;
611;SDS011;293;53.888;11.464;2024-03-22T14:40:01;15.23;;;10.90;;
611;SDS011;293;53.888;11.464;2024-03-22T14:42:30;1.40;;;1.30;;
611;SDS011;293;53.888;11.464;2024-03-22T14:44:56;1.27;;;1.13;;
611;SDS011;293;53.888;11.464;2024-03-22T14:47:22;1.00;;;1.00;;
611;SDS011;293;53.888;11.464;2024-03-22T14:49:48;2.23;;;1.47;;
611;SDS011;293;53.888;11.464;2024-03-22T14:52:16;1.47;;;1.30;;
611;SDS011;293;53.888;11.464;2024-03-22T14:54:42;1.80;;;1.70;;
611;SDS011;293;53.888;11.464;2024-03-22T14:57:10;2.50;;;1.50;;
611;SDS011;293;53.888;11.464;2024-03-22T14:59:36;1.43;;;1.20;;
611;SDS011;293;53.888;11.464;2024-03-22T15:02:03;1.50;;;1.40;;